createdAt,value
2018-09-12T00:01:55.140Z,57.69
2018-09-12T00:04:22.602Z,57.81
2018-09-12T00:06:50.082Z,57.98
2018-09-12T00:09:17.588Z,58.36
2018-09-12T00:11:45.018Z,58.34
2018-09-12T00:14:12.471Z,58.36
2018-09-12T00:16:39.948Z,58.10
2018-09-12T00:19:07.346Z,58.15
2018-09-12T00:21:34.852Z,58.07
2018-09-12T00:24:02.305Z,57.95
2018-09-12T00:26:29.729Z,57.74
2018-09-12T00:28:57.214Z,57.35
2018-09-12T00:31:24.674Z,57.11
2018-09-12T00:33:52.115Z,57.25
2018-09-12T00:36:19.577Z,57.28
2018-09-12T00:38:47.324Z,57.69
2018-09-12T00:41:15.096Z,58.36
2018-09-12T00:43:42.535Z,58.90
2018-09-12T00:46:09.959Z,59.32
2018-09-12T00:48:37.423Z,59.16
2018-09-12T00:51:04.855Z,59.24
2018-09-12T00:53:32.323Z,59.01
2018-09-12T00:55:59.754Z,59.04
2018-09-12T00:58:27.342Z,59.13
2018-09-12T01:00:54.801Z,59.62
2018-09-12T01:03:22.225Z,60.28
2018-09-12T01:05:49.632Z,60.49
2018-09-12T01:08:17.141Z,60.50
2018-09-12T01:10:44.763Z,60.97
2018-09-12T01:13:12.228Z,61.57
2018-09-12T01:15:39.673Z,61.78
2018-09-12T01:18:07.110Z,61.69
2018-09-12T01:20:34.546Z,61.71
2018-09-12T01:23:02.006Z,61.78
2018-09-12T01:25:29.478Z,62.00
2018-09-12T01:27:57.024Z,61.94
2018-09-12T01:30:24.510Z,61.74
2018-09-12T01:32:51.935Z,61.51
2018-09-12T01:35:19.392Z,61.24
2018-09-12T01:37:46.887Z,61.38
2018-09-12T01:40:14.330Z,61.52
2018-09-12T01:42:41.780Z,61.81
2018-09-12T01:45:09.258Z,62.10
2018-09-12T01:47:37.540Z,62.54
2018-09-12T01:50:04.990Z,62.75
2018-09-12T01:52:32.399Z,62.87
2018-09-12T01:54:59.913Z,62.64
2018-09-12T01:57:27.337Z,62.51
2018-09-12T01:59:54.743Z,62.57
2018-09-12T02:02:22.177Z,62.44
2018-09-12T02:04:49.646Z,62.48
2018-09-12T02:07:17.140Z,62.61
2018-09-12T02:09:44.597Z,62.99
2018-09-12T02:12:12.033Z,63.06
2018-09-12T02:14:39.443Z,63.23
2018-09-12T02:17:06.865Z,63.10
2018-09-12T02:19:34.308Z,62.85
2018-09-12T02:22:01.776Z,62.84
2018-09-12T02:24:29.241Z,62.80
2018-09-12T02:26:56.859Z,62.61
2018-09-12T02:29:24.351Z,62.46
2018-09-12T02:31:51.905Z,62.43
2018-09-12T02:34:19.317Z,62.36
2018-09-12T02:36:46.767Z,62.43
2018-09-12T02:39:14.246Z,62.42
2018-09-12T02:41:41.744Z,62.61
2018-09-12T02:44:09.209Z,62.99
2018-09-12T02:46:36.684Z,63.00
2018-09-12T02:49:04.156Z,63.19
2018-09-12T02:51:31.687Z,63.26
2018-09-12T02:53:59.156Z,62.72
2018-09-12T02:56:26.578Z,62.64
2018-09-12T03:02:08.541Z,61.92
2018-09-12T03:04:35.950Z,61.58
2018-09-12T03:07:03.436Z,61.59
2018-09-12T03:09:30.880Z,61.65
2018-09-12T03:11:58.291Z,62.14
2018-09-12T03:14:25.774Z,63.34
2018-09-12T03:16:53.200Z,64.14
2018-09-12T03:19:20.611Z,64.35
2018-09-12T03:21:48.063Z,64.41
2018-09-12T03:24:15.540Z,64.56
2018-09-12T03:26:43.001Z,65.20
2018-09-12T03:29:10.404Z,65.39
2018-09-12T03:31:37.922Z,65.55
2018-09-12T03:34:05.391Z,65.42
2018-09-12T03:36:32.874Z,65.46
2018-09-12T03:39:00.322Z,65.55
2018-09-12T03:41:27.793Z,65.03
2018-09-12T03:43:55.244Z,64.58
2018-09-12T03:46:22.705Z,64.71
2018-09-12T03:48:50.148Z,64.89
2018-09-12T03:51:17.587Z,64.69
2018-09-12T03:53:44.993Z,64.49
2018-09-12T03:56:12.452Z,64.06
2018-09-12T03:58:39.867Z,64.07
2018-09-12T04:01:07.351Z,64.02
2018-09-12T04:03:34.831Z,63.78
2018-09-12T04:06:02.309Z,63.53
2018-09-12T04:08:29.755Z,63.66
2018-09-12T04:10:57.176Z,63.55
2018-09-12T04:13:25.248Z,63.35
2018-09-12T04:15:52.756Z,63.77
2018-09-12T04:18:20.293Z,63.58
2018-09-12T04:20:47.783Z,63.55
2018-09-12T04:23:15.186Z,63.39
2018-09-12T04:25:42.663Z,62.96
2018-09-12T04:28:10.188Z,62.94
2018-09-12T04:30:38.468Z,63.22
2018-09-12T04:33:05.892Z,63.35
2018-09-12T04:35:33.476Z,63.50
2018-09-12T04:38:01.872Z,63.45
2018-09-12T04:40:29.733Z,63.38
2018-09-12T04:42:57.241Z,63.75
2018-09-12T04:45:24.668Z,63.83
2018-09-12T04:47:52.128Z,63.77
2018-09-12T04:50:21.268Z,63.81
2018-09-12T04:52:52.059Z,63.87
2018-09-12T04:55:19.546Z,64.10
2018-09-12T04:57:47.462Z,64.45
2018-09-12T05:00:14.908Z,65.05
2018-09-12T05:02:42.400Z,65.47
2018-09-12T05:05:09.898Z,65.67
2018-09-12T05:07:37.596Z,65.94
2018-09-12T05:10:05.116Z,66.21
2018-09-12T05:12:32.576Z,66.23
2018-09-12T05:14:59.995Z,65.72
2018-09-12T05:17:28.210Z,65.29
2018-09-12T05:19:55.847Z,64.83
2018-09-12T05:22:23.317Z,64.31
2018-09-12T05:24:50.732Z,65.09
2018-09-12T05:27:18.240Z,65.59
2018-09-12T05:29:45.688Z,65.82
2018-09-12T05:32:13.279Z,65.91
2018-09-12T05:34:40.720Z,65.98
2018-09-12T05:37:08.130Z,65.77
2018-09-12T05:39:35.632Z,65.68
2018-09-12T05:42:03.171Z,65.41
2018-09-12T05:44:30.618Z,65.02
2018-09-12T05:46:58.027Z,64.29
2018-09-12T05:49:25.563Z,62.68
2018-09-12T05:51:53.060Z,60.99
2018-09-12T05:54:20.531Z,59.51
2018-09-12T05:56:48.075Z,58.53
2018-09-12T05:59:15.678Z,56.65
2018-09-12T06:01:44.344Z,55.13
2018-09-12T06:04:11.832Z,53.44
2018-09-12T06:06:39.424Z,52.53
2018-09-12T06:09:06.847Z,52.34
2018-09-12T06:11:34.330Z,52.05
2018-09-12T06:14:01.804Z,51.32
2018-09-12T06:16:29.537Z,50.39
2018-09-12T06:18:57.052Z,49.02
2018-09-12T06:21:24.599Z,49.00
2018-09-12T06:23:52.082Z,48.59
2018-09-12T06:26:19.573Z,48.00
2018-09-12T06:28:47.008Z,47.56
2018-09-12T06:31:15.029Z,46.61
2018-09-12T06:33:42.439Z,45.76
2018-09-12T06:36:10.033Z,44.99
2018-09-12T06:38:37.694Z,44.35
2018-09-12T06:41:05.168Z,43.58
2018-09-12T06:43:32.767Z,42.70
2018-09-12T06:46:00.220Z,41.94
2018-09-12T06:48:27.802Z,41.64
2018-09-12T06:50:55.210Z,42.03
2018-09-12T06:53:22.695Z,42.32
2018-09-12T06:55:50.138Z,43.21
2018-09-12T06:58:17.636Z,43.45
2018-09-12T07:00:45.265Z,43.35
2018-09-12T07:03:12.904Z,42.86
2018-09-12T07:05:40.364Z,42.15
2018-09-12T07:08:07.824Z,42.17
2018-09-12T07:10:35.285Z,42.35
2018-09-12T07:13:02.776Z,41.86
2018-09-12T07:15:30.211Z,41.25
2018-09-12T07:17:57.740Z,40.64
2018-09-12T07:20:25.224Z,39.88
2018-09-12T07:22:52.661Z,39.06
2018-09-12T07:25:20.105Z,38.86
2018-09-12T07:27:47.633Z,37.89
2018-09-12T07:30:15.214Z,36.85
2018-09-12T07:32:42.203Z,36.74
2018-09-12T07:35:09.705Z,36.43
2018-09-12T07:37:37.195Z,35.87
2018-09-12T07:40:04.757Z,35.10
2018-09-12T07:42:31.739Z,34.93
2018-09-12T07:44:58.769Z,34.11
2018-09-12T07:47:25.924Z,33.74
2018-09-12T07:49:52.924Z,33.81
2018-09-12T07:52:19.989Z,32.95
2018-09-12T07:54:46.980Z,32.14
2018-09-12T07:57:14.448Z,31.90
2018-09-12T07:59:42.002Z,32.44
2018-09-12T08:02:09.452Z,32.07
2018-09-12T08:04:36.939Z,31.07
2018-09-12T08:07:04.436Z,30.73
2018-09-12T08:09:31.868Z,30.69
2018-09-12T08:11:59.276Z,30.45
2018-09-12T08:14:26.720Z,30.28
2018-09-12T08:16:54.214Z,30.32
2018-09-12T08:19:22.067Z,30.36
2018-09-12T08:21:49.605Z,29.53
2018-09-12T08:24:17.142Z,28.75
2018-09-12T08:26:44.661Z,28.03
2018-09-12T08:29:11.736Z,27.77
2018-09-12T08:31:39.207Z,27.75
2018-09-12T08:34:06.748Z,27.75
2018-09-12T08:36:34.347Z,27.30
2018-09-12T08:39:01.248Z,27.01
2018-09-12T08:41:28.757Z,26.48
2018-09-12T08:43:56.287Z,26.33
2018-09-12T08:46:23.355Z,26.66
2018-09-12T08:48:50.381Z,26.68
2018-09-12T08:51:17.396Z,26.75
2018-09-12T08:53:44.409Z,27.14
2018-09-12T08:56:11.497Z,27.39
2018-09-12T08:58:38.454Z,27.28
2018-09-12T09:01:06.112Z,27.37
2018-09-12T09:03:33.571Z,28.18
2018-09-12T09:06:01.117Z,28.35
2018-09-12T09:08:28.585Z,28.80
2018-09-12T09:10:56.276Z,30.09
2018-09-12T09:13:23.945Z,30.29
2018-09-12T09:15:51.481Z,30.87
2018-09-12T09:18:18.940Z,31.43
2018-09-12T09:20:46.435Z,32.74
2018-09-12T09:23:13.883Z,33.48
2018-09-12T09:25:41.345Z,32.93
2018-09-12T09:28:09.095Z,32.15
2018-09-12T09:30:36.567Z,32.55
2018-09-12T09:33:04.094Z,33.23
2018-09-12T09:35:31.695Z,32.30
2018-09-12T09:37:59.065Z,32.15
2018-09-12T09:40:26.662Z,32.07
2018-09-12T09:42:54.108Z,32.48
2018-09-12T09:45:21.535Z,33.11
2018-09-12T09:47:49.103Z,33.29
2018-09-12T09:50:16.473Z,33.08
2018-09-12T09:52:43.933Z,33.29
2018-09-12T09:55:11.514Z,33.06
2018-09-12T09:57:38.806Z,32.90
2018-09-12T10:00:06.354Z,32.15
2018-09-12T10:02:34.737Z,32.33
2018-09-12T10:05:02.146Z,32.32
2018-09-12T10:07:29.720Z,32.46
2018-09-12T10:09:57.331Z,31.71
2018-09-12T10:12:24.801Z,31.26
2018-09-12T10:14:52.372Z,30.97
2018-09-12T10:17:19.901Z,30.62
2018-09-12T10:19:47.424Z,30.81
2018-09-12T10:22:14.917Z,30.85
2018-09-12T10:24:42.518Z,30.69
2018-09-12T10:27:09.996Z,31.50
2018-09-12T10:29:37.457Z,31.48
2018-09-12T10:32:04.858Z,30.78
2018-09-12T10:34:32.348Z,30.65
2018-09-12T10:36:59.842Z,30.41
2018-09-12T10:39:27.427Z,30.31
2018-09-12T10:41:54.920Z,30.95
2018-09-12T10:44:22.441Z,31.41
2018-09-12T10:46:49.981Z,32.04
2018-09-12T10:49:17.428Z,32.37
2018-09-12T10:51:44.889Z,32.25
2018-09-12T10:54:13.089Z,31.80
2018-09-12T10:56:40.616Z,31.45
2018-09-12T10:59:08.212Z,31.60
2018-09-12T11:01:35.659Z,31.59
2018-09-12T11:04:03.294Z,32.28
2018-09-12T11:06:30.826Z,33.08
2018-09-12T11:08:58.283Z,33.26
2018-09-12T11:11:26.828Z,32.42
2018-09-12T11:13:54.355Z,31.77
2018-09-12T11:16:21.822Z,31.11
2018-09-12T11:18:49.402Z,30.30
2018-09-12T11:21:16.886Z,30.21
2018-09-12T11:23:44.309Z,30.23
2018-09-12T11:26:11.805Z,30.53
2018-09-12T11:28:39.294Z,29.66
2018-09-12T11:31:06.838Z,29.48
2018-09-12T11:33:34.269Z,29.73
2018-09-12T11:36:01.769Z,30.01
2018-09-12T11:38:29.399Z,29.99
2018-09-12T11:40:56.888Z,29.52
2018-09-12T11:43:24.443Z,29.23
2018-09-12T11:45:51.918Z,29.18
2018-09-12T11:48:19.505Z,29.29
2018-09-12T11:50:47.542Z,29.16
2018-09-12T11:53:15.026Z,29.61
2018-09-12T11:55:43.081Z,29.21
2018-09-12T11:58:11.740Z,29.24
2018-09-12T12:00:39.706Z,29.57
2018-09-12T12:03:07.173Z,29.79
2018-09-12T12:05:34.701Z,29.94
2018-09-12T12:08:02.183Z,29.83
2018-09-12T12:10:29.707Z,29.75
2018-09-12T12:12:57.164Z,27.53
2018-09-12T12:15:24.707Z,25.94
2018-09-12T12:17:51.661Z,24.33
2018-09-12T12:20:18.681Z,23.50
2018-09-12T12:22:45.651Z,23.36
2018-09-12T12:25:13.158Z,23.76
2018-09-12T12:27:40.165Z,23.34
2018-09-12T12:30:07.614Z,22.54
2018-09-12T12:32:35.167Z,22.32
2018-09-12T12:35:02.615Z,22.44
2018-09-12T12:37:30.102Z,21.95
2018-09-12T12:39:57.695Z,22.09
2018-09-12T12:42:25.178Z,22.17
2018-09-12T12:44:52.700Z,21.98
2018-09-12T12:47:20.123Z,22.13
2018-09-12T12:49:47.643Z,21.96
2018-09-12T12:52:15.125Z,22.04
2018-09-12T12:54:42.582Z,22.01
2018-09-12T12:57:10.042Z,22.27
2018-09-12T12:59:37.533Z,22.26
2018-09-12T13:02:05.085Z,22.58
2018-09-12T13:04:32.809Z,22.61
2018-09-12T13:07:00.257Z,22.74
2018-09-12T13:09:27.861Z,22.55
2018-09-12T13:11:55.395Z,22.57
2018-09-12T13:14:22.915Z,22.47
2018-09-12T13:16:50.400Z,21.98
2018-09-12T13:19:17.832Z,21.94
2018-09-12T13:21:45.455Z,21.85
2018-09-12T13:24:12.944Z,21.46
2018-09-12T13:26:40.412Z,21.53
2018-09-12T13:29:07.940Z,21.47
2018-09-12T13:31:35.484Z,21.49
2018-09-12T13:34:02.975Z,21.58
2018-09-12T13:36:30.444Z,21.70
2018-09-12T13:38:57.951Z,21.50
2018-09-12T13:41:25.407Z,21.92
2018-09-12T13:43:52.894Z,21.86
2018-09-12T13:46:20.431Z,21.98
2018-09-12T13:48:47.896Z,22.06
2018-09-12T13:51:15.472Z,21.56
2018-09-12T13:53:43.017Z,21.30
2018-09-12T13:56:10.554Z,21.48
2018-09-12T13:58:38.038Z,21.28
2018-09-12T14:01:05.624Z,21.39
2018-09-12T14:03:33.083Z,21.80
2018-09-12T14:06:00.519Z,22.44
2018-09-12T14:08:28.782Z,22.66
2018-09-12T14:10:56.193Z,22.42
2018-09-12T14:13:23.745Z,22.52
2018-09-12T14:15:51.349Z,22.89
2018-09-12T14:18:18.816Z,22.86
2018-09-12T14:20:46.287Z,22.86
2018-09-12T14:23:13.782Z,22.54
2018-09-12T14:25:41.444Z,22.33
2018-09-12T14:28:08.917Z,22.16
2018-09-12T14:30:36.382Z,22.63
2018-09-12T14:33:04.040Z,22.77
2018-09-12T14:35:31.538Z,22.70
2018-09-12T14:37:58.992Z,22.44
2018-09-12T14:40:26.464Z,22.39
2018-09-12T14:42:53.948Z,22.26
2018-09-12T14:45:21.476Z,22.45
2018-09-12T14:47:48.929Z,22.60
2018-09-12T14:50:16.507Z,22.38
2018-09-12T14:52:43.988Z,22.50
2018-09-12T14:55:11.411Z,22.79
2018-09-12T14:57:39.122Z,23.00
2018-09-12T15:00:06.929Z,22.92
2018-09-12T15:02:34.970Z,23.09
2018-09-12T15:05:02.402Z,23.19
2018-09-12T15:07:29.892Z,22.99
2018-09-12T15:09:57.367Z,23.29
2018-09-12T15:12:24.819Z,23.58
2018-09-12T15:14:52.311Z,23.79
2018-09-12T15:17:19.882Z,24.02
2018-09-12T15:19:47.324Z,24.14
2018-09-12T15:22:14.796Z,24.50
2018-09-12T15:24:41.767Z,24.97
2018-09-12T15:27:09.591Z,25.22
2018-09-12T15:29:36.618Z,25.05
2018-09-12T15:32:03.755Z,25.30
2018-09-12T15:34:30.842Z,25.36
2018-09-12T15:36:57.824Z,25.45
2018-09-12T15:39:24.949Z,25.74
2018-09-12T15:41:52.008Z,26.10
2018-09-12T15:44:19.051Z,26.25
2018-09-12T15:46:46.037Z,26.37
2018-09-12T15:49:14.007Z,26.62
2018-09-12T15:51:41.006Z,26.81
2018-09-12T15:54:08.071Z,26.87
2018-09-12T15:56:35.064Z,26.65
2018-09-12T15:59:02.066Z,26.65
2018-09-12T16:01:29.068Z,26.61
2018-09-12T16:03:56.152Z,26.57
2018-09-12T16:06:23.085Z,26.58
2018-09-12T16:08:50.112Z,26.64
2018-09-12T16:11:17.148Z,26.64
2018-09-12T16:13:44.216Z,26.58
2018-09-12T16:16:11.183Z,26.68
2018-09-12T16:18:38.142Z,26.78
2018-09-12T16:21:05.134Z,26.99
2018-09-12T16:23:32.106Z,27.42
2018-09-12T16:25:59.170Z,27.64
2018-09-12T16:28:26.170Z,27.86
2018-09-12T16:30:53.342Z,28.12
2018-09-12T16:33:20.400Z,28.31
2018-09-12T16:35:47.388Z,28.52
2018-09-12T16:38:14.811Z,28.73
2018-09-12T16:40:41.895Z,29.20
2018-09-12T16:43:08.857Z,29.79
2018-09-12T16:45:36.110Z,30.13
2018-09-12T16:48:03.316Z,30.39
2018-09-12T16:50:30.316Z,30.71
2018-09-12T16:52:57.752Z,31.16
2018-09-12T16:55:25.236Z,31.41
2018-09-12T16:57:52.814Z,31.65
2018-09-12T17:00:20.281Z,31.89
2018-09-12T17:02:47.727Z,32.09
2018-09-12T17:05:15.147Z,32.31
2018-09-12T17:07:42.599Z,32.58
2018-09-12T17:10:10.106Z,32.69
2018-09-12T17:12:37.625Z,32.93
2018-09-12T17:15:05.140Z,33.06
2018-09-12T17:17:32.637Z,33.30
2018-09-12T17:20:00.068Z,33.51
2018-09-12T17:22:27.452Z,33.70
2018-09-12T17:24:54.890Z,33.95
2018-09-12T17:27:22.331Z,34.11
2018-09-12T17:29:49.894Z,34.35
2018-09-12T17:32:17.367Z,34.52
2018-09-12T17:34:44.310Z,34.84
2018-09-12T17:37:11.324Z,34.94
2018-09-12T17:39:38.303Z,35.22
2018-09-12T17:42:05.406Z,35.26
2018-09-12T17:44:32.435Z,35.35
2018-09-12T17:46:59.443Z,35.51
2018-09-12T17:49:26.430Z,35.69
2018-09-12T17:51:53.436Z,35.77
2018-09-12T17:54:20.445Z,35.96
2018-09-12T17:56:47.888Z,36.22
2018-09-12T17:59:15.356Z,36.42
2018-09-12T18:01:42.347Z,36.70
2018-09-12T18:04:09.872Z,36.80
2018-09-12T18:06:37.304Z,37.01
2018-09-12T18:09:04.261Z,37.13
2018-09-12T18:11:31.248Z,37.23
2018-09-12T18:13:58.389Z,37.39
2018-09-12T18:16:25.702Z,37.44
2018-09-12T18:18:52.675Z,37.44
2018-09-12T18:21:19.734Z,37.55
2018-09-12T18:23:48.093Z,37.60
2018-09-12T18:26:15.063Z,37.69
2018-09-12T18:28:42.622Z,37.93
2018-09-12T18:31:09.644Z,38.00
2018-09-12T18:33:36.695Z,38.17
2018-09-12T18:36:04.138Z,38.42
2018-09-12T18:38:31.668Z,38.71
2018-09-12T18:40:59.200Z,38.83
2018-09-12T18:43:26.196Z,38.94
2018-09-12T18:45:53.655Z,39.05
2018-09-12T18:48:21.147Z,39.10
2018-09-12T18:50:48.235Z,39.27
2018-09-12T18:53:15.264Z,39.28
2018-09-12T18:55:42.803Z,39.31
2018-09-12T18:58:10.206Z,39.38
2018-09-12T19:00:37.608Z,39.45
2018-09-12T19:03:05.114Z,39.63
2018-09-12T19:05:32.685Z,39.77
2018-09-12T19:08:00.118Z,39.94
2018-09-12T19:10:27.661Z,39.98
2018-09-12T19:12:55.083Z,40.04
2018-09-12T19:15:22.558Z,40.12
2018-09-12T19:17:50.040Z,40.25
2018-09-12T19:20:17.026Z,40.32
2018-09-12T19:22:44.006Z,40.39
2018-09-12T19:25:10.994Z,40.37
2018-09-12T19:27:38.472Z,40.38
2018-09-12T19:30:05.923Z,40.47
2018-09-12T19:32:33.356Z,40.70
2018-09-12T19:35:00.829Z,40.87
2018-09-12T19:37:28.332Z,41.00
2018-09-12T19:39:55.931Z,41.15
2018-09-12T19:42:23.403Z,41.17
2018-09-12T19:44:50.876Z,41.25
2018-09-12T19:47:18.353Z,41.29
2018-09-12T19:49:45.852Z,41.36
2018-09-12T19:52:13.264Z,41.35
2018-09-12T19:54:40.853Z,41.43
2018-09-12T19:57:08.390Z,41.52
2018-09-12T19:59:35.872Z,41.60
2018-09-12T20:02:03.295Z,41.71
2018-09-12T20:04:30.851Z,41.73
2018-09-12T20:06:58.678Z,41.81
2018-09-12T20:09:26.132Z,41.88
2018-09-12T20:11:53.612Z,41.86
2018-09-12T20:14:21.108Z,42.03
2018-09-12T20:16:49.515Z,41.99
2018-09-12T20:19:16.996Z,42.03
2018-09-12T20:21:44.458Z,42.03
2018-09-12T20:24:11.949Z,42.05
2018-09-12T20:26:39.411Z,41.96
2018-09-12T20:29:06.876Z,41.97
2018-09-12T20:31:34.320Z,41.97
2018-09-12T20:34:01.842Z,42.01
2018-09-12T20:36:29.287Z,41.89
2018-09-12T20:38:56.822Z,41.92
2018-09-12T20:41:24.272Z,41.99
2018-09-12T20:43:51.703Z,42.10
2018-09-12T20:46:19.146Z,42.16
2018-09-12T20:48:46.603Z,41.97
2018-09-12T20:51:14.040Z,42.07
2018-09-12T20:53:41.020Z,41.96
2018-09-12T20:56:08.002Z,41.84
2018-09-12T20:58:35.017Z,41.85
2018-09-12T21:01:01.958Z,42.03
2018-09-12T21:03:29.048Z,41.88
2018-09-12T21:05:56.028Z,41.89
2018-09-12T21:08:23.446Z,41.96
2018-09-12T21:10:50.962Z,42.17
2018-09-12T21:13:18.415Z,42.08
2018-09-12T21:15:45.854Z,42.12
2018-09-12T21:18:13.425Z,42.14
2018-09-12T21:20:40.432Z,42.25
2018-09-12T21:23:08.071Z,42.32
2018-09-12T21:25:35.480Z,42.49
2018-09-12T21:28:02.954Z,42.55
2018-09-12T21:30:30.491Z,42.62
2018-09-12T21:32:57.951Z,42.72
2018-09-12T21:35:25.415Z,42.78
2018-09-12T21:37:52.872Z,42.85
2018-09-12T21:40:20.367Z,42.82
2018-09-12T21:42:47.771Z,42.84
2018-09-12T21:45:15.256Z,42.88
2018-09-12T21:47:42.739Z,42.88
2018-09-12T21:50:10.176Z,42.87
2018-09-12T21:52:37.659Z,42.92
2018-09-12T21:55:05.120Z,42.86
2018-09-12T21:57:32.523Z,42.81
2018-09-12T21:59:59.981Z,42.84
2018-09-12T22:02:27.390Z,42.80
2018-09-12T22:04:54.907Z,42.77
2018-09-12T22:07:22.402Z,42.85
2018-09-12T22:09:50.274Z,42.94
2018-09-12T22:12:17.741Z,43.07
2018-09-12T22:14:45.202Z,43.10
2018-09-12T22:17:12.647Z,43.22
2018-09-12T22:19:40.060Z,43.44
2018-09-12T22:22:07.471Z,43.73
2018-09-12T22:24:34.870Z,43.90
2018-09-12T22:27:02.368Z,44.05
2018-09-12T22:29:29.851Z,44.49
2018-09-12T22:31:57.275Z,44.81
2018-09-12T22:34:24.786Z,45.11
2018-09-12T22:36:52.207Z,45.62
2018-09-12T22:39:19.642Z,46.01
2018-09-12T22:41:47.070Z,46.39
2018-09-12T22:44:14.556Z,46.70
2018-09-12T22:46:42.052Z,47.26
2018-09-12T22:49:09.509Z,47.63
2018-09-12T22:51:36.977Z,47.95
2018-09-12T22:54:04.461Z,48.28
2018-09-12T22:56:31.944Z,48.60
2018-09-12T22:58:59.427Z,48.83
2018-09-12T23:01:26.919Z,48.92
2018-09-12T23:03:54.378Z,48.85
2018-09-12T23:06:21.806Z,48.58
2018-09-12T23:08:49.376Z,48.67
2018-09-12T23:11:16.834Z,48.90
2018-09-12T23:13:44.276Z,49.03
2018-09-12T23:16:11.745Z,49.14
2018-09-12T23:18:39.183Z,49.08
2018-09-12T23:21:06.681Z,49.14
2018-09-12T23:23:34.239Z,49.27
2018-09-12T23:26:01.699Z,49.54
2018-09-12T23:28:29.119Z,49.70
2018-09-12T23:30:56.611Z,49.61
2018-09-12T23:33:24.998Z,49.61
2018-09-12T23:35:52.422Z,49.50
2018-09-12T23:38:19.847Z,49.31
2018-09-12T23:40:47.360Z,49.45
2018-09-12T23:43:14.822Z,49.64
2018-09-12T23:45:41.854Z,49.81
2018-09-12T23:48:09.631Z,49.61
2018-09-12T23:50:36.603Z,49.47
2018-09-12T23:53:03.603Z,49.50
2018-09-12T23:55:30.679Z,49.66
2018-09-12T23:57:57.689Z,50.13
